Time;durP1;ratioP1;P1;durP2;ratioP2;P2;SDS_P1;SDS_P2;PMS_P1;PMS_P2;Temp;Humidity;BMP_temperature;BMP_pressure;BME280_temperature;BME280_humidity;BME280_pressure;Samples;Min_cycle;Max_cycle;Signal;HPM_P1;HPM_P2
2021/05/05 00:02:16;;;;;;;2.93;0.80;;;9.70;99.90;;;11.34;100.00;98816.03;5007073;28;45907;-61
2021/05/05 00:05:28;;;;;;;1.10;0.50;;;9.70;99.90;;;11.36;100.00;98819.34;5004685;28;42506;-62
2021/05/05 00:08:40;;;;;;;1.87;0.70;;;9.70;99.90;;;11.28;100.00;98819.50;4985774;28;47201;-61
2021/05/05 00:11:51;;;;;;;2.73;0.87;;;9.70;99.90;;;11.25;100.00;98813.75;5001811;28;48925;-61
2021/05/05 00:15:08;;;;;;;1.53;0.70;;;9.60;99.90;;;11.23;100.00;98815.78;4986098;28;43074;-60
2021/05/05 00:18:19;;;;;;;2.43;0.80;;;9.60;99.90;;;11.27;100.00;98809.81;4994910;28;43573;-61
2021/05/05 00:25:05;;;;;;;2.07;1.00;;;9.50;99.90;;;11.24;100.00;98807.56;5006366;28;46645;-60
2021/05/05 00:28:27;;;;;;;1.17;0.70;;;9.50;99.90;;;11.21;100.00;98812.47;5000965;28;56216;-61
2021/05/05 00:31:38;;;;;;;3.17;0.87;;;9.50;99.90;;;11.07;100.00;98814.25;5008318;28;49719;-61
2021/05/05 00:34:56;;;;;;;1.20;0.87;;;9.40;99.90;;;11.18;100.00;98813.69;5010511;28;48016;-61
2021/05/05 00:38:10;;;;;;;2.40;1.00;;;9.40;99.90;;;11.24;100.00;98812.91;5012488;28;46018;-62
2021/05/05 00:41:23;;;;;;;1.93;0.80;;;9.40;99.90;;;11.08;100.00;98814.03;5010485;28;40340;-62
2021/05/05 00:44:34;;;;;;;1.67;0.83;;;9.40;99.90;;;11.06;100.00;98812.59;5011348;28;46051;-61
2021/05/05 00:47:46;;;;;;;1.97;0.70;;;9.40;99.90;;;11.01;100.00;98817.69;5010251;28;47330;-61
2021/05/05 00:50:58;;;;;;;1.87;0.80;;;9.30;99.90;;;11.02;100.00;98814.81;5010970;28;44165;-60
2021/05/05 00:54:10;;;;;;;1.60;0.93;;;9.30;99.90;;;11.02;100.00;98804.13;5010532;28;45476;-61
2021/05/05 01:04:54;;;;;;;2.77;1.00;;;9.30;99.90;;;11.01;100.00;98799.78;5011745;28;40998;-60
2021/05/05 01:08:07;;;;;;;2.77;1.00;;;9.20;99.90;;;11.02;100.00;98798.75;4991256;28;38927;-61
2021/05/05 01:11:20;;;;;;;3.83;1.20;;;9.20;99.90;;;10.98;100.00;98805.56;5009029;28;42581;-62
2021/05/05 01:14:32;;;;;;;3.50;1.13;;;9.20;99.90;;;11.02;100.00;98793.41;4992899;28;38785;-61
2021/05/05 01:17:44;;;;;;;1.97;1.17;;;9.20;99.90;;;11.05;100.00;98800.22;5011590;28;40759;-61
2021/05/05 01:21:05;;;;;;;1.97;1.10;;;9.20;99.90;;;10.92;100.00;98789.44;5012136;28;47436;-61
2021/05/05 01:24:18;;;;;;;1.60;1.00;;;9.20;99.90;;;10.97;100.00;98776.31;4994176;28;40025;-61
2021/05/05 01:27:32;;;;;;;1.87;1.07;;;9.20;99.90;;;10.92;100.00;98800.97;5013356;28;44175;-62
2021/05/05 01:30:44;;;;;;;3.10;0.87;;;9.20;99.90;;;11.05;100.00;98785.00;5012904;28;39990;-61
2021/05/05 01:33:56;;;;;;;2.83;1.00;;;9.20;99.90;;;10.99;100.00;98799.19;5010260;28;45458;-61
2021/05/05 01:37:11;;;;;;;2.23;1.20;;;9.20;99.90;;;10.95;100.00;98800.59;5008778;28;41833;-61
2021/05/05 01:43:52;;;;;;;4.07;1.20;;;9.10;99.90;;;10.97;100.00;98790.50;4989176;28;40409;-62
2021/05/05 01:47:04;;;;;;;2.37;1.00;;;9.20;99.90;;;10.99;100.00;98790.31;5010500;28;45755;-62
2021/05/05 01:50:25;;;;;;;2.60;1.10;;;9.20;99.90;;;10.89;100.00;98781.78;4992837;28;43589;-61
2021/05/05 01:53:39;;;;;;;1.50;0.80;;;9.20;99.90;;;10.95;100.00;98784.53;5008978;28;43493;-62
2021/05/05 01:56:51;;;;;;;3.80;1.27;;;9.20;99.90;;;10.98;100.00;98786.81;4990487;28;50156;-61
2021/05/05 02:00:03;;;;;;;3.77;1.43;;;9.20;99.90;;;10.86;100.00;98774.19;4995181;28;42668;-60
2021/05/05 02:03:26;;;;;;;2.20;1.33;;;9.10;99.90;;;10.90;100.00;98770.06;5011140;28;46275;-61
2021/05/05 02:06:47;;;;;;;3.27;1.40;;;9.10;99.90;;;10.87;100.00;98768.63;5010182;28;38928;-61
2021/05/05 02:13:42;;;;;;;3.23;0.97;;;9.10;99.90;;;10.74;100.00;98758.69;4988931;28;51371;-61
2021/05/05 02:16:54;;;;;;;2.87;1.30;;;9.10;99.90;;;10.75;100.00;98757.66;5008790;28;43136;-61
2021/05/05 02:20:05;;;;;;;2.50;1.03;;;9.00;99.90;;;10.78;100.00;98754.56;5010792;28;43020;-62
2021/05/05 02:23:17;;;;;;;3.70;1.13;;;9.00;99.90;;;10.70;100.00;98746.72;5008620;28;49472;-61
2021/05/05 02:26:41;;;;;;;2.50;0.90;;;9.00;99.90;;;10.74;100.00;98742.63;5010758;28;43237;-61
2021/05/05 02:29:52;;;;;;;2.87;1.43;;;9.00;99.90;;;10.75;100.00;98743.47;5008887;28;45207;-61
2021/05/05 02:33:16;;;;;;;3.30;1.17;;;9.00;99.90;;;10.70;100.00;98749.38;5009635;28;43484;-62
2021/05/05 02:36:28;;;;;;;4.33;1.03;;;9.00;99.90;;;10.69;100.00;98738.88;4990834;28;43244;-60
2021/05/05 02:39:40;;;;;;;2.60;1.10;;;9.00;99.90;;;10.69;100.00;98745.06;4988811;28;45187;-61
2021/05/05 02:42:53;;;;;;;3.17;1.10;;;9.00;99.90;;;10.64;100.00;98741.31;4992915;28;41432;-60
2021/05/05 02:46:04;;;;;;;2.63;1.37;;;9.00;99.90;;;10.62;100.00;98738.03;5008140;28;46683;-61
2021/05/05 02:52:41;;;;;;;2.60;1.13;;;8.90;99.90;;;10.51;100.00;98749.25;4996887;28;37374;-62
2021/05/05 02:55:53;;;;;;;4.23;1.20;;;8.90;99.90;;;10.43;100.00;98751.03;5008524;28;41057;-60
2021/05/05 02:59:05;;;;;;;4.57;1.30;;;8.80;99.90;;;10.44;100.00;98735.84;4985092;28;42013;-61
2021/05/05 03:02:22;;;;;;;2.97;1.03;;;8.80;99.90;;;10.53;100.00;98749.88;5002815;28;43422;-61
2021/05/05 03:05:34;;;;;;;3.07;1.20;;;8.80;99.90;;;10.40;100.00;98734.56;4989063;28;48837;-60
2021/05/05 03:08:46;;;;;;;1.63;1.27;;;8.80;99.90;;;10.35;100.00;98739.69;5007593;28;46685;-61
2021/05/05 03:12:09;;;;;;;2.53;0.93;;;8.70;99.90;;;10.33;100.00;98737.19;5005702;28;50506;-61
2021/05/05 03:15:28;;;;;;;3.07;1.20;;;8.70;99.90;;;10.32;100.00;98732.88;5007345;28;45397;-61
2021/05/05 03:18:40;;;;;;;5.33;1.40;;;8.60;99.90;;;10.29;100.00;98724.41;5004746;28;51479;-60
2021/05/05 03:21:52;;;;;;;3.30;1.27;;;8.60;99.90;;;10.20;100.00;98741.59;4989375;28;57140;-60
2021/05/05 03:25:03;;;;;;;3.77;1.57;;;8.60;99.90;;;10.27;100.00;98742.47;4988257;28;48363;-60
2021/05/05 03:28:14;;;;;;;2.90;1.40;;;8.60;99.90;;;10.38;100.00;98736.63;5002746;28;51370;-59
2021/05/05 03:31:26;;;;;;;3.20;1.47;;;8.60;99.90;;;10.26;100.00;98740.84;5007018;28;48001;-61
2021/05/05 03:34:38;;;;;;;2.57;1.40;;;8.70;99.90;;;10.29;100.00;98738.59;5008277;28;41921;-61
2021/05/05 03:37:49;;;;;;;1.70;0.97;;;8.70;99.90;;;10.43;100.00;98737.69;4986262;28;43282;-59
2021/05/05 03:41:27;;;;;;;3.17;1.10;;;8.70;99.90;;;10.37;100.00;98745.66;4997696;28;47567;-60
2021/05/05 03:44:38;;;;;;;1.93;1.10;;;8.70;99.90;;;10.40;100.00;98738.06;4938429;28;49631;-61
2021/05/05 03:51:30;;;;;;;3.07;1.10;;;8.80;99.90;;;10.38;100.00;98745.47;5001736;28;53256;-60
2021/05/05 03:54:42;;;;;;;2.30;0.97;;;8.80;99.90;;;10.47;100.00;98737.28;5004518;28;45134;-60
2021/05/05 03:58:06;;;;;;;5.47;1.60;;;8.80;99.90;;;10.59;100.00;98736.56;4988112;28;49598;-61
2021/05/05 04:01:17;;;;;;;4.47;1.20;;;8.80;99.90;;;10.54;100.00;98728.28;5002284;28;52052;-61
2021/05/05 04:04:30;;;;;;;4.53;1.60;;;8.80;99.90;;;10.47;100.00;98727.44;5002447;28;49730;-61
2021/05/05 04:07:41;;;;;;;7.50;1.30;;;8.90;99.90;;;10.52;100.00;98727.66;5003866;28;47521;-61
2021/05/05 04:10:52;;;;;;;2.33;1.10;;;8.90;99.90;;;10.54;100.00;98727.47;5007119;28;41951;-60
2021/05/05 04:14:04;;;;;;;2.63;1.10;;;8.90;99.90;;;10.54;100.00;98733.63;5006197;28;48750;-61
2021/05/05 04:17:15;;;;;;;3.93;1.70;;;9.00;99.90;;;10.49;100.00;98740.59;5005144;28;42943;-60
2021/05/05 04:20:40;;;;;;;1.80;1.10;;;9.00;99.90;;;10.52;100.00;98738.34;4997921;28;48468;-59
2021/05/05 04:23:53;;;;;;;2.23;1.40;;;9.00;99.90;;;10.47;100.00;98743.47;5005632;28;49747;-61
2021/05/05 04:27:31;;;;;;;4.50;1.43;;;8.90;99.90;;;10.43;100.00;98736.84;4987342;28;45888;-60
2021/05/05 04:30:43;;;;;;;2.50;1.37;;;8.90;99.90;;;10.40;100.00;98743.41;4922781;28;48275;-60
2021/05/05 04:33:54;;;;;;;5.07;1.70;;;8.90;99.90;;;10.40;100.00;98738.06;4999651;28;51069;-60
2021/05/05 04:37:07;;;;;;;2.40;1.40;;;8.90;99.90;;;10.34;100.00;98738.03;5000707;28;54259;-61
2021/05/05 04:40:24;;;;;;;3.03;1.73;;;8.90;99.90;;;10.32;100.00;98740.88;5000980;28;49434;-61
2021/05/05 04:43:41;;;;;;;5.63;1.60;;;8.90;99.90;;;10.33;100.00;98733.69;4996980;28;50890;-61
2021/05/05 04:46:52;;;;;;;3.07;1.50;;;8.80;99.90;;;10.35;100.00;98731.66;5000040;28;52102;-61
2021/05/05 04:50:04;;;;;;;2.47;1.00;;;8.80;99.90;;;10.49;100.00;98738.75;4996456;28;49189;-62
2021/05/05 04:53:27;;;;;;;1.63;1.33;;;8.80;99.90;;;10.45;100.00;98742.84;4984599;28;51204;-62
2021/05/05 04:56:38;;;;;;;3.10;1.37;;;8.80;99.90;;;10.48;100.00;98737.09;5002167;28;49635;-60
2021/05/05 04:59:50;;;;;;;4.53;1.50;;;8.90;99.90;;;10.50;100.00;98743.09;5003619;28;53312;-60
2021/05/05 05:03:02;;;;;;;1.97;1.33;;;8.90;99.90;;;11.00;100.00;98744.59;4994613;28;52573;-62
2021/05/05 05:06:13;;;;;;;3.80;1.63;;;9.00;99.90;;;11.27;100.00;98725.97;5001718;28;51235;-62
2021/05/05 05:09:25;;;;;;;2.03;1.10;;;9.20;99.90;;;11.47;100.00;98745.63;5002757;28;58447;-62
2021/05/05 05:12:37;;;;;;;4.23;1.70;;;9.50;99.90;;;11.68;100.00;98747.34;5001824;28;45912;-61
2021/05/05 05:15:48;;;;;;;1.80;1.13;;;9.70;99.90;;;11.38;100.00;98753.00;5003629;28;51838;-61
2021/05/05 05:19:00;;;;;;;3.70;1.20;;;9.90;99.90;;;11.29;100.00;98748.03;5007450;28;46319;-61
2021/05/05 05:22:11;;;;;;;4.50;1.40;;;10.00;99.90;;;11.34;100.00;98757.13;5009079;28;44465;-62
2021/05/05 05:25:25;;;;;;;2.60;1.43;;;10.00;99.90;;;11.32;100.00;98767.22;5006478;28;57256;-61
2021/05/05 05:28:37;;;;;;;2.60;1.17;;;10.10;99.90;;;11.35;100.00;98766.81;5004236;28;52939;-62
2021/05/05 05:31:48;;;;;;;4.00;1.30;;;10.10;99.90;;;11.33;100.00;98778.75;5004109;28;51605;-59
2021/05/05 05:34:59;;;;;;;2.23;1.23;;;10.10;99.90;;;11.33;100.00;98771.53;5006143;28;53917;-61
2021/05/05 05:38:10;;;;;;;4.13;1.30;;;10.10;99.90;;;11.32;100.00;98771.75;4983599;28;58007;-60
2021/05/05 05:41:22;;;;;;;2.87;1.50;;;10.10;99.90;;;11.23;100.00;98767.59;4988393;28;47288;-60
2021/05/05 05:44:34;;;;;;;3.87;1.20;;;10.10;99.90;;;11.18;100.00;98784.22;5004606;28;48256;-60
2021/05/05 05:47:57;;;;;;;3.97;1.50;;;10.10;99.90;;;11.19;100.00;98782.38;5004775;28;46005;-61
2021/05/05 05:51:15;;;;;;;3.90;1.63;;;10.10;99.90;;;11.17;100.00;98774.56;5005628;28;50673;-60
2021/05/05 05:54:26;;;;;;;3.33;1.23;;;10.10;99.90;;;11.21;100.00;98781.16;5005575;28;51667;-61
2021/05/05 05:57:39;;;;;;;2.93;1.30;;;10.10;99.90;;;11.19;100.00;98783.22;5005967;28;46382;-62
2021/05/05 06:00:51;;;;;;;3.27;1.43;;;10.10;99.90;;;11.18;100.00;98792.25;4999419;28;47113;-60
2021/05/05 06:04:08;;;;;;;1.70;1.33;;;10.00;99.90;;;11.16;100.00;98789.78;5001949;28;51485;-62
2021/05/05 06:07:19;;;;;;;5.83;1.60;;;10.00;99.90;;;11.17;100.00;98790.63;5006332;28;48077;-62
2021/05/05 06:10:31;;;;;;;5.40;1.47;;;10.00;99.90;;;11.24;100.00;98783.47;5008476;28;44160;-61
2021/05/05 06:13:49;;;;;;;3.10;1.60;;;10.00;99.90;;;11.39;100.00;98783.28;5007228;28;52812;-60
2021/05/05 06:17:00;;;;;;;2.77;1.40;;;10.00;99.90;;;11.48;100.00;98785.63;5009419;28;45408;-62
2021/05/05 06:20:11;;;;;;;4.33;1.57;;;10.10;99.90;;;11.52;100.00;98786.03;5010786;28;44765;-62
2021/05/05 06:23:32;;;;;;;3.63;1.43;;;10.20;99.90;;;11.55;100.00;98782.94;4993865;28;40647;-62
2021/05/05 06:26:44;;;;;;;5.67;1.40;;;10.30;99.90;;;11.54;100.00;98789.34;5010272;28;37171;-61
2021/05/05 06:29:56;;;;;;;2.50;1.20;;;10.30;99.90;;;11.53;100.00;98783.16;4993312;28;41804;-62
2021/05/05 06:33:19;;;;;;;3.17;1.60;;;10.40;99.90;;;11.95;100.00;98780.41;4990630;28;41193;-62
2021/05/05 06:36:42;;;;;;;4.83;1.60;;;10.50;99.90;;;11.94;100.00;98774.22;4979203;28;38649;-60
2021/05/05 06:39:57;;;;;;;2.87;1.40;;;10.60;99.70;;;11.97;100.00;98773.81;4997511;28;49295;-62
2021/05/05 06:43:08;;;;;;;3.27;1.77;;;10.60;99.90;;;11.81;100.00;98760.81;4991582;28;45367;-61
2021/05/05 06:46:32;;;;;;;4.23;1.60;;;10.60;99.40;;;12.05;100.00;98776.31;5013096;28;41710;-61
2021/05/05 06:49:55;;;;;;;4.20;1.27;;;10.70;99.20;;;11.97;100.00;98771.16;5013709;28;41112;-61
2021/05/05 06:53:06;;;;;;;3.87;1.50;;;10.80;97.80;;;12.21;100.00;98777.78;5010037;28;39921;-61
2021/05/05 06:56:17;;;;;;;2.50;1.60;;;11.00;97.50;;;12.21;100.00;98775.09;5013387;28;39719;-61
2021/05/05 06:59:28;;;;;;;4.27;1.43;;;11.10;96.70;;;12.34;100.00;98777.78;5009448;28;40238;-62
2021/05/05 07:02:40;;;;;;;3.43;1.27;;;11.10;96.30;;;12.53;100.00;98766.22;5016494;28;30506;-62
2021/05/05 07:06:20;;;;;;;1.83;1.37;;;11.30;94.80;;;12.64;100.00;98767.44;5019201;28;32247;-61
2021/05/05 07:09:32;;;;;;;2.70;1.30;;;11.60;92.80;;;12.82;100.00;98769.50;5016176;28;39029;-62
2021/05/05 07:12:43;;;;;;;4.17;1.23;;;11.80;91.40;;;12.67;100.00;98774.25;5016996;28;38307;-62
2021/05/05 07:15:54;;;;;;;3.07;1.17;;;12.00;85.80;;;12.58;100.00;98771.78;5016303;28;37894;-61
2021/05/05 07:19:07;;;;;;;3.93;1.33;;;12.10;78.20;;;13.02;100.00;98772.13;5011254;28;30314;-62
2021/05/05 07:22:18;;;;;;;3.67;1.43;;;12.20;78.00;;;13.25;100.00;98776.00;5011931;28;33885;-61
2021/05/05 07:28:52;;;;;;;2.10;1.30;;;12.50;74.80;;;13.00;100.00;98780.38;5018684;28;34829;-62
2021/05/05 07:32:04;;;;;;;3.70;1.20;;;12.50;72.30;;;13.27;100.00;98789.22;5011802;28;29952;-62
2021/05/05 07:53:20;;;;;;;3.03;1.40;;;13.00;59.20;;;13.59;100.00;98782.09;4907620;28;43759;-62
2021/05/05 07:56:46;;;;;;;4.37;1.43;;;13.30;58.40;;;13.72;100.00;98789.25;4953200;28;36868;-60
2021/05/05 07:59:57;;;;;;;5.97;1.57;;;13.40;57.80;;;13.89;100.00;98795.78;5018418;28;30241;-62
2021/05/05 08:06:53;;;;;;;4.17;1.70;;;13.70;56.80;;;13.58;100.00;98799.25;5020861;28;27693;-62
2021/05/05 08:13:34;;;;;;;2.37;1.60;;;13.80;55.90;;;13.46;100.00;98819.75;4990981;28;31233;-62
2021/05/05 08:16:46;;;;;;;4.17;1.43;;;13.70;56.20;;;13.14;100.00;98814.25;5004918;28;31626;-61
2021/05/05 08:19:57;;;;;;;6.00;1.90;;;13.60;57.50;;;12.87;100.00;98802.72;5013827;28;31629;-62
2021/05/05 08:23:42;;;;;;;6.57;1.73;;;13.40;57.40;;;12.69;100.00;98832.06;5009843;28;36478;-61
2021/05/05 08:26:54;;;;;;;5.57;1.40;;;13.10;58.00;;;12.77;100.00;98833.69;5015824;28;29648;-61
2021/05/05 08:30:06;;;;;;;3.30;1.93;;;12.90;59.20;;;12.96;100.00;98819.44;5015082;28;25650;-62
2021/05/05 08:33:29;;;;;;;4.43;1.70;;;12.80;58.30;;;13.13;100.00;98836.75;5001028;28;28027;-63
2021/05/05 08:36:52;;;;;;;3.80;1.60;;;12.90;58.00;;;13.20;100.00;98828.72;5007784;28;33407;-60
2021/05/05 08:40:09;;;;;;;3.60;1.50;;;12.90;57.40;;;13.19;100.00;98824.38;5002200;28;27678;-61
2021/05/05 08:43:45;;;;;;;3.63;1.10;;;12.90;56.00;;;13.61;100.00;98818.44;5021996;28;21865;-63
2021/05/05 08:58:19;;;;;;;3.10;1.00;;;13.60;52.10;;;15.22;100.00;98820.59;5015844;28;26181;-62
2021/05/05 09:01:56;;;;;;;4.40;1.30;;;13.90;51.70;;;14.33;89.58;98795.69;5014910;28;20712;-61
2021/05/05 09:08:37;;;;;;;3.13;1.30;;;14.40;47.50;;;14.45;91.99;98827.31;5014273;28;21039;-61
2021/05/05 09:12:01;;;;;;;2.77;1.20;;;14.30;47.90;;;14.34;93.41;98829.59;5014441;28;20607;-61
2021/05/05 09:15:23;;;;;;;2.63;1.10;;;14.40;47.20;;;13.90;87.33;98818.94;5024910;28;22383;-61
2021/05/05 09:18:57;;;;;;;3.70;1.50;;;14.40;46.60;;;13.77;88.08;98819.00;5007840;28;20681;-61
2021/05/05 09:22:10;;;;;;;5.27;1.27;;;14.30;45.50;;;13.83;91.55;98824.34;4995707;28;20651;-61
2021/05/05 09:25:34;;;;;;;4.00;1.33;;;14.10;45.50;;;14.45;91.05;98833.53;5020487;28;22800;-61
2021/05/05 09:29:00;;;;;;;2.43;1.30;;;14.10;46.40;;;13.99;90.76;98839.16;5007891;28;22442;-61
2021/05/05 09:32:33;;;;;;;2.13;1.37;;;14.10;46.20;;;13.48;89.67;98813.13;5022922;28;25740;-61
2021/05/05 09:36:07;;;;;;;5.67;1.53;;;14.10;45.60;;;13.46;89.58;98817.91;5001007;28;30144;-62
2021/05/05 09:43:09;;;;;;;2.73;1.30;;;13.70;46.00;;;13.48;92.47;98831.09;5000719;28;30384;-61
2021/05/05 09:54:31;;;;;;;3.37;1.50;;;13.30;47.00;;;14.06;92.20;98829.19;4909622;28;30686;-62
2021/05/05 09:57:57;;;;;;;3.27;1.23;;;13.20;47.30;;;14.41;92.35;98820.72;4938584;28;35844;-61
2021/05/05 10:08:55;;;;;;;3.77;1.30;;;14.20;46.60;;;14.26;88.41;98815.59;5012629;28;22571;-62
2021/05/05 10:12:09;;;;;;;3.50;1.43;;;14.40;46.00;;;14.18;91.80;98816.69;5019728;28;36243;-62
2021/05/05 10:15:22;;;;;;;6.90;1.43;;;14.40;45.90;;;14.64;94.86;98818.25;5014597;28;38432;-63
2021/05/05 10:22:15;;;;;;;3.65;1.73;;;14.80;45.90;;;14.70;90.05;98812.00;5022392;28;20674;-62
2021/05/05 10:25:28;;;;;;;3.33;1.40;;;15.20;45.60;;;14.68;94.63;98812.22;5016868;28;21944;-62
2021/05/05 10:28:40;;;;;;;6.97;1.67;;;15.40;45.00;;;14.70;98.53;98812.00;5020121;28;24137;-63
2021/05/05 10:31:55;;;;;;;9.32;2.00;;;15.30;45.30;;;14.96;100.00;98806.34;4998263;28;20252;-61
2021/05/05 10:35:12;;;;;;;4.60;1.65;;;15.30;45.80;;;15.08;96.17;98823.41;5016934;28;21693;-62
2021/05/05 10:38:30;;;;;;;5.85;1.55;;;15.40;46.00;;;15.09;92.94;98822.38;5021048;28;20282;-62
2021/05/05 10:42:12;;;;;;;3.03;1.27;;;15.60;45.50;;;14.41;98.89;98831.47;5019516;28;25841;-62
2021/05/05 10:49:34;;;;;;;5.22;1.10;;;15.10;49.20;;;12.92;100.00;98851.25;5000196;28;31715;-62
2021/05/05 11:01:08;;;;;;;3.83;1.27;;;14.00;47.90;;;14.46;99.64;98827.09;4994297;28;27417;-62
2021/05/05 11:15:30;;;;;;;1.70;1.20;;;15.40;47.00;;;15.46;100.00;98830.47;5011236;28;20406;-61
2021/05/05 11:19:12;;;;;;;4.20;1.63;;;15.70;46.80;;;15.56;100.00;98820.06;5007661;28;21042;-61
2021/05/05 11:22:33;;;;;;;3.80;1.75;;;16.00;46.50;;;15.02;100.00;98826.19;5008862;28;20753;-62
2021/05/05 11:26:40;;;;;;;1.85;1.35;;;16.20;45.80;;;14.64;100.00;98837.09;5025179;28;21263;-62
2021/05/05 11:30:06;;;;;;;3.78;0.90;;;15.90;45.50;;;13.11;100.00;98892.50;4983541;28;20679;-60
2021/05/05 11:33:22;;;;;;;4.93;1.48;;;15.20;45.70;;;11.77;100.00;98929.19;5013580;28;28110;-61
2021/05/05 11:36:44;;;;;;;2.60;0.80;;;14.20;50.30;;;10.61;100.00;98958.38;5005956;28;40108;-60
2021/05/05 11:40:01;;;;;;;3.03;1.50;;;12.80;59.70;;;10.02;100.00;98939.78;4999477;28;46596;-60
2021/05/05 11:43:38;;;;;;;4.87;1.40;;;11.30;72.40;;;9.89;100.00;98928.94;4994631;28;47992;-61
2021/05/05 11:46:50;;;;;;;4.27;1.70;;;10.20;90.60;;;10.21;100.00;98920.50;4985235;28;54686;-60
2021/05/05 11:50:03;;;;;;;2.17;1.10;;;9.50;99.60;;;11.06;100.00;98896.41;4991898;28;52151;-61
2021/05/05 11:53:15;;;;;;;5.93;1.73;;;9.60;99.90;;;11.82;100.00;98888.41;5004706;28;42062;-61
2021/05/05 11:56:57;;;;;;;2.73;1.07;;;10.10;99.90;;;12.63;100.00;98880.34;5011563;28;44485;-60
2021/05/05 12:00:15;;;;;;;2.07;1.20;;;10.80;97.10;;;13.26;100.00;98879.72;4919045;28;38982;-60
2021/05/05 12:03:30;;;;;;;2.47;1.20;;;11.60;92.50;;;13.95;100.00;98878.28;4937161;28;37808;-59
2021/05/05 12:06:48;;;;;;;3.07;1.00;;;12.40;87.00;;;14.44;100.00;98868.72;5013092;28;35892;-61
2021/05/05 12:10:09;;;;;;;3.97;1.37;;;13.30;70.00;;;14.93;100.00;98855.28;5020788;28;35501;-60
2021/05/05 12:13:35;;;;;;;1.37;1.20;;;14.10;64.90;;;14.66;100.00;98848.47;5025622;28;20475;-61
2021/05/05 12:16:47;;;;;;;2.93;1.23;;;14.70;56.60;;;14.38;100.00;98860.44;5003682;28;20520;-61
2021/05/05 12:20:04;;;;;;;3.40;1.30;;;14.70;55.20;;;14.13;100.00;98856.88;5011055;28;30289;-60
2021/05/05 12:27:04;;;;;;;6.17;1.40;;;14.30;54.00;;;14.24;100.00;98861.56;5018699;28;34040;-61
2021/05/05 12:34:08;;;;;;;3.40;1.20;;;14.00;54.60;;;14.08;100.00;98863.94;5003238;28;28261;-61
2021/05/05 12:37:19;;;;;;;3.43;1.30;;;13.90;52.00;;;13.98;100.00;98881.34;4944059;28;24021;-61
2021/05/05 12:40:32;;;;;;;4.87;1.10;;;13.80;51.90;;;13.15;100.00;98899.16;5001065;28;39235;-60
2021/05/05 12:43:55;;;;;;;4.20;0.90;;;13.60;50.60;;;13.26;94.05;98882.41;4998556;28;37426;-61
2021/05/05 12:47:22;;;;;;;5.33;1.10;;;13.10;47.80;;;13.98;91.19;98877.84;5000441;28;37928;-59
2021/05/05 12:50:34;;;;;;;5.27;1.10;;;13.10;48.50;;;14.15;94.79;98880.88;4998442;28;34651;-60
2021/05/05 12:54:03;;;;;;;6.60;1.07;;;13.40;48.40;;;14.34;100.00;98890.69;4983899;28;32484;-61
2021/05/05 12:57:23;;;;;;;11.60;1.50;;;13.80;49.20;;;14.21;100.00;98906.91;5000717;28;35353;-62
2021/05/05 13:00:49;;;;;;;3.97;1.20;;;14.00;49.30;;;13.79;100.00;98900.25;5021674;28;25399;-61
2021/05/05 13:04:06;;;;;;;5.77;1.20;;;14.10;50.20;;;13.79;100.00;98940.59;5025005;28;25546;-60
2021/05/05 13:07:26;;;;;;;8.10;1.60;;;13.80;51.30;;;13.40;100.00;98949.56;5022048;28;37942;-61
2021/05/05 13:10:39;;;;;;;10.30;1.57;;;13.60;52.00;;;13.36;100.00;98940.25;5021347;28;31712;-61
2021/05/05 13:14:05;;;;;;;5.17;1.50;;;13.40;53.20;;;13.36;100.00;98951.81;5020403;28;32424;-61
2021/05/05 13:31:40;;;;;;;8.13;2.20;;;12.70;61.40;;;12.46;100.00;98980.03;4928190;28;49234;-61
2021/05/05 13:34:56;;;;;;;5.40;1.77;;;12.70;65.00;;;12.49;100.00;99002.91;4929704;28;51095;-62
2021/05/05 13:38:14;;;;;;;3.33;1.70;;;12.70;65.50;;;13.00;100.00;98984.44;4994098;28;41791;-63
2021/05/05 13:41:26;;;;;;;4.67;1.80;;;12.90;64.90;;;13.32;100.00;98995.44;4988396;28;51098;-62
2021/05/05 13:44:47;;;;;;;2.83;1.30;;;13.10;62.00;;;13.66;100.00;98997.91;4990005;28;46812;-60
2021/05/05 13:51:23;;;;;;;3.87;1.30;;;13.70;59.50;;;13.70;100.00;98969.56;4994885;28;46950;-62
2021/05/05 13:58:23;;;;;;;3.20;1.20;;;14.10;57.10;;;14.40;100.00;98973.28;4975317;28;48795;-61
2021/05/05 14:01:35;;;;;;;3.23;1.20;;;14.30;57.40;;;14.03;100.00;98982.91;4988685;28;43843;-62
2021/05/05 14:04:46;;;;;;;2.00;1.10;;;14.40;56.30;;;13.98;100.00;98982.72;4986532;28;44711;-62
2021/05/05 14:07:57;;;;;;;1.37;0.90;;;14.40;56.00;;;13.08;100.00;98975.38;4988717;28;49717;-63
2021/05/05 14:11:20;;;;;;;5.23;1.30;;;14.20;55.50;;;13.02;100.00;98976.19;4997359;28;47188;-61
2021/05/05 14:14:35;;;;;;;8.17;2.00;;;13.60;56.00;;;12.98;100.00;98997.28;4988616;28;43290;-61
2021/05/05 14:17:49;;;;;;;4.80;0.87;;;13.20;57.90;;;12.87;100.00;99020.16;4986339;28;51175;-62
2021/05/05 14:21:06;;;;;;;11.47;1.33;;;12.90;57.60;;;13.04;100.00;99012.53;4985797;28;46584;-62
2021/05/05 14:24:20;;;;;;;13.37;1.20;;;12.90;57.30;;;13.36;100.00;99010.09;4984550;28;47841;-61
2021/05/05 14:27:42;;;;;;;11.13;1.27;;;13.10;56.60;;;13.53;100.00;98998.72;4980955;28;38041;-61
2021/05/05 14:31:01;;;;;;;11.53;1.70;;;13.30;56.30;;;13.95;100.00;99015.44;4984233;28;47908;-62
2021/05/05 14:34:12;;;;;;;4.10;1.00;;;13.50;56.50;;;14.12;100.00;99010.41;4984824;28;47789;-62
2021/05/05 14:37:29;;;;;;;3.27;0.70;;;13.70;56.00;;;13.88;100.00;99030.72;4992765;28;39916;-62
2021/05/05 14:40:43;;;;;;;1.50;0.70;;;13.70;54.80;;;13.46;100.00;99032.03;4992958;28;44862;-62
2021/05/05 14:50:33;;;;;;;0.70;0.50;;;13.10;56.00;;;12.81;100.00;99053.19;4984031;28;47026;-62
2021/05/05 14:53:44;;;;;;;4.07;0.60;;;12.90;57.20;;;12.86;100.00;99039.13;4993297;28;31930;-62
2021/05/05 14:56:56;;;;;;;1.63;0.70;;;12.80;58.10;;;13.21;100.00;99059.50;4967926;28;41618;-61
2021/05/05 15:00:07;;;;;;;2.27;0.87;;;12.60;60.30;;;12.64;100.00;99049.19;4992143;28;38734;-61
2021/05/05 15:03:21;;;;;;;2.67;1.20;;;12.70;62.70;;;12.30;100.00;99044.75;4978479;28;45138;-58
2021/05/05 15:06:35;;;;;;;2.63;0.97;;;12.50;65.50;;;12.17;100.00;99050.03;4982173;28;45571;-61
2021/05/05 15:13:17;;;;;;;2.30;1.10;;;12.00;71.80;;;12.65;100.00;99055.41;4984517;28;43929;-61
2021/05/05 15:41:01;;;;;;;6.80;1.23;;;12.60;59.40;;;14.05;100.00;99033.81;5009548;28;41300;-61
2021/05/05 15:51:42;;;;;;;3.77;1.17;;;12.80;57.30;;;14.21;100.00;99036.03;4973031;28;33491;-62
2021/05/05 15:55:22;;;;;;;4.23;1.20;;;12.90;57.80;;;14.24;100.00;99036.44;4891824;28;35494;-60
2021/05/05 15:58:53;;;;;;;1.23;0.70;;;12.90;57.90;;;14.02;100.00;99046.63;4931326;28;38725;-62
2021/05/05 16:15:33;;;;;;;2.93;0.80;;;12.70;56.00;;;14.09;100.00;99054.72;5017423;28;22263;-62
2021/05/05 16:18:46;;;;;;;5.13;1.50;;;12.70;56.70;;;13.85;100.00;99047.28;5017629;28;35368;-62
2021/05/05 16:22:00;;;;;;;3.73;1.50;;;12.70;58.70;;;13.45;100.00;99030.38;5002004;28;35539;-61
2021/05/05 16:25:28;;;;;;;3.57;1.20;;;12.70;62.60;;;13.36;100.00;99059.28;4991169;28;37248;-62
2021/05/05 16:49:11;;;;;;;0.80;0.80;;;11.90;58.60;;;13.00;100.00;99066.84;5007212;28;30118;-61
2021/05/05 17:10:40;;;;;;;2.00;1.00;;;11.20;62.00;;;12.35;100.00;99106.69;4856060;28;40100;-61
2021/05/05 17:13:52;;;;;;;2.87;1.20;;;11.10;63.00;;;12.22;100.00;99153.03;4887583;28;49587;-61
2021/05/05 17:17:15;;;;;;;4.13;0.70;;;11.10;65.10;;;10.17;100.00;99221.25;4913756;28;46936;-62
2021/05/05 17:24:16;;;;;;;2.27;1.00;;;10.00;96.90;;;8.80;100.00;99222.97;4998593;28;55135;-61
2021/05/05 17:27:32;;;;;;;1.00;0.73;;;9.00;99.90;;;8.85;100.00;99210.81;5000748;28;47986;-61
2021/05/05 18:19:45;;;;;;;2.67;1.67;;;7.40;99.90;;;9.00;100.00;99275.78;4999621;28;46314;-60
2021/05/05 18:23:02;;;;;;;1.80;1.53;;;7.40;99.90;;;9.04;100.00;99278.91;5000555;28;56088;-61
2021/05/05 18:30:26;;;;;;;3.07;2.20;;;7.30;99.90;;;8.97;100.00;99280.63;4986735;28;49015;-61
2021/05/05 18:33:40;;;;;;;2.03;1.67;;;7.20;99.90;;;8.97;100.00;99293.97;4996698;28;53404;-61
2021/05/05 18:36:52;;;;;;;2.77;2.00;;;7.20;99.90;;;8.96;100.00;99287.78;4993364;28;54920;-61